METAR AND TAF INFORMATION
METAR FOR VELP
ADDS - METARS form results

(1340 UTC 29 November 2020)
Data provider http://aviationweather.gov/metar/data/
 
Forecast for: VELP (LENGPUI , IN)
Text: TAF VELP 290800Z 2909/2918 35003KT 5000 HZ NSC
Forecast period: 0900 to 1300 UTC 29 November 2020
Forecast type: FROM: standard forecast or significant change
Winds: from the N (350 degrees) at 3 MPH (3 knots; 1.5 m/s)
Visibility: 3 miles (5 km)
Ceiling: unknown
Clouds: missing
Weather: HZ  (haze)
Text: BECMG 2913/2916 00000KT 3000 BR
Forecast period: 1300 to 1800 UTC 29 November 2020
Forecast type: BECOMING: Conditions expected to become as follows by 1600 UTC 29 November 2020
Winds: calm
Visibility: 1.86 miles (2.99 km)
Ceiling: unknown
Clouds: missing
Weather: BR  (mist)

 AIRPORT MAP

 RUNWAY INFORMATION
Runway 17 Runway length 8202 ft Runway width 148 ft
Runway elevation 1374 ft Runway displaced threshold 0 ft Runway heading 171
Runway 35 Runway length 8202 ft Runway width 148 ft
Runway elevation 1395 ft Runway displaced threshold 0 ft Runway heading 351

 AIRPORT FREQUENCIES
Type TWR Name TWR Frequency 122.25 MHZ

 AIRPORT NEAR NAVIGATION AIDS
Type VOR-DME Name Lengpui Frequency 114200 KHZ
Type NDB Name Lengpui Frequency 344 KHZ



Powered by Virtual Airlines Manager [v2.6.2]